YMSO weather

Mount Sandon Airport
New South Wales, Australia

Public forecast

Using degrees Celsius for public forecast. Weather courtesy of forecast.io.

Closest aviation weather report (METAR) to Mount Sandon Airport

Closest report is Tamworth Airport, 34.3 nm (63.4 km) WNW. Retrieved 2019/10/21 01:30 UTC (0 seconds ago):

YSTW 210130Z AUTO 12006KT 070V170 9999 // NCD 23/02 Q1025 RF000/0000

Closest aviation forecast (TAF) to Mount Sandon Airport

Closest forecast is Tamworth Airport, 34.3 nm (63.4 km) WNW. Retrieved 2019-10-21 00:36 UTC (26 minutes ago):

TAF TAF YSTW 202251Z 2100/2118 10005KT CAVOK FM210200 17008KT CAVOK FM210900 11008KT CAVOK